createdAt,value
2023-02-26T00:01:34.413Z,100.00
2023-02-26T00:04:04.793Z,100.00
2023-02-26T00:06:37.675Z,100.00
2023-02-26T00:09:07.513Z,100.00
2023-02-26T00:11:36.151Z,99.42
2023-02-26T00:14:04.957Z,99.53
2023-02-26T00:16:36.445Z,99.74
2023-02-26T00:19:08.169Z,99.61
2023-02-26T00:21:38.491Z,99.40
2023-02-26T00:24:08.874Z,98.30
2023-02-26T00:26:37.413Z,98.46
2023-02-26T00:29:06.610Z,97.20
2023-02-26T00:31:35.340Z,97.19
2023-02-26T00:34:04.074Z,96.72
2023-02-26T00:36:43.639Z,96.73
2023-02-26T00:39:20.761Z,96.98
2023-02-26T00:41:50.419Z,95.96
2023-02-26T00:44:19.186Z,95.32
2023-02-26T00:46:55.348Z,95.12
2023-02-26T00:49:35.523Z,94.99
2023-02-26T00:52:07.713Z,94.76
2023-02-26T00:54:35.883Z,94.94
2023-02-26T00:57:06.042Z,94.59
2023-02-26T00:59:34.193Z,94.34
2023-02-26T01:02:02.252Z,94.17
2023-02-26T01:04:30.931Z,93.94
2023-02-26T01:07:00.005Z,93.81
2023-02-26T01:09:31.678Z,93.74
2023-02-26T01:12:02.016Z,94.19
2023-02-26T01:14:31.886Z,94.15
2023-02-26T01:17:06.186Z,93.01
2023-02-26T01:19:42.801Z,92.85
2023-02-26T01:22:17.238Z,94.03
2023-02-26T01:24:49.868Z,93.64
2023-02-26T01:27:18.325Z,93.12
2023-02-26T01:29:46.709Z,93.82
2023-02-26T01:32:22.204Z,92.85
2023-02-26T01:34:58.460Z,91.80
2023-02-26T01:37:33.132Z,91.92
2023-02-26T01:40:31.037Z,91.48
2023-02-26T01:43:07.935Z,90.26
2023-02-26T01:45:41.009Z,91.25
2023-02-26T01:48:13.671Z,92.36
2023-02-26T01:50:42.478Z,91.68
2023-02-26T01:53:24.120Z,92.13
2023-02-26T01:55:58.490Z,92.77
2023-02-26T01:58:29.337Z,93.63
2023-02-26T02:00:57.336Z,94.12
2023-02-26T02:03:29.063Z,92.85
2023-02-26T02:06:02.327Z,93.58
2023-02-26T02:08:33.646Z,93.46
2023-02-26T02:14:02.335Z,91.33
2023-02-26T02:16:41.928Z,90.51
2023-02-26T02:19:30.784Z,83.60
2023-02-26T02:22:35.250Z,77.06
2023-02-26T02:25:18.061Z,76.94
2023-02-26T02:27:58.587Z,76.86
2023-02-26T02:30:37.086Z,75.89
2023-02-26T02:33:12.199Z,72.42
2023-02-26T02:35:46.060Z,66.99
2023-02-26T02:38:20.368Z,62.71
2023-02-26T02:40:55.520Z,60.06
2023-02-26T02:43:29.654Z,58.06
2023-02-26T02:46:03.385Z,56.71
2023-02-26T02:48:36.441Z,56.84
2023-02-26T02:51:09.914Z,57.66
2023-02-26T02:53:42.462Z,58.15
2023-02-26T02:56:14.779Z,58.14
2023-02-26T02:58:48.319Z,57.96
2023-02-26T03:01:20.981Z,57.09
2023-02-26T03:03:57.605Z,57.95
2023-02-26T03:06:25.891Z,58.81
2023-02-26T03:08:55.460Z,59.68
2023-02-26T03:11:24.458Z,59.48
2023-02-26T03:13:54.369Z,60.12
2023-02-26T03:16:41.244Z,60.73
2023-02-26T03:19:19.576Z,61.09
2023-02-26T03:21:54.388Z,62.71
2023-02-26T03:24:30.183Z,64.59
2023-02-26T03:27:03.768Z,64.90
2023-02-26T03:29:39.742Z,66.17
2023-02-26T03:32:13.490Z,67.00
2023-02-26T03:34:48.740Z,67.51
2023-02-26T03:37:24.792Z,67.34
2023-02-26T03:39:55.684Z,66.56
2023-02-26T03:42:29.745Z,67.46
2023-02-26T03:45:01.253Z,68.71
2023-02-26T03:47:32.613Z,69.45
2023-02-26T03:50:06.914Z,69.58
2023-02-26T03:52:40.332Z,69.94
2023-02-26T03:55:12.994Z,70.84
2023-02-26T03:57:41.449Z,72.39
2023-02-26T04:00:11.375Z,73.72
2023-02-26T04:02:45.450Z,75.78
2023-02-26T04:05:19.195Z,76.78
2023-02-26T04:07:48.598Z,76.45
2023-02-26T04:10:21.662Z,77.38
2023-02-26T04:12:49.901Z,79.04
2023-02-26T04:15:18.150Z,78.62
2023-02-26T04:17:46.284Z,79.43
2023-02-26T04:20:15.928Z,79.44
2023-02-26T04:22:43.902Z,79.85
2023-02-26T04:25:12.178Z,80.13
2023-02-26T04:27:40.347Z,81.82
2023-02-26T04:30:09.890Z,82.16
2023-02-26T04:32:38.251Z,82.11
2023-02-26T04:35:06.740Z,83.08
2023-02-26T04:37:36.370Z,83.39
2023-02-26T04:40:05.779Z,83.49
2023-02-26T04:42:33.877Z,84.28
2023-02-26T04:45:02.032Z,84.57
2023-02-26T04:47:30.236Z,84.94
2023-02-26T04:49:58.468Z,84.80
2023-02-26T04:52:26.997Z,85.28
2023-02-26T04:54:56.751Z,84.62
2023-02-26T04:57:24.946Z,84.62
2023-02-26T04:59:53.137Z,85.79
2023-02-26T05:02:21.398Z,86.35
2023-02-26T05:04:49.633Z,86.59
2023-02-26T05:07:17.888Z,86.76
2023-02-26T05:09:47.700Z,85.25
2023-02-26T05:12:17.336Z,85.53
2023-02-26T05:14:45.394Z,85.39
2023-02-26T05:17:14.734Z,85.15
2023-02-26T05:19:43.920Z,85.80
2023-02-26T05:22:12.483Z,85.59
2023-02-26T05:24:40.635Z,85.66
2023-02-26T05:27:08.872Z,85.45
2023-02-26T05:29:38.391Z,85.40
2023-02-26T05:32:06.615Z,84.34
2023-02-26T05:34:34.792Z,83.45
2023-02-26T05:37:03.051Z,84.38
2023-02-26T05:39:31.544Z,84.31
2023-02-26T05:42:00.375Z,84.07
2023-02-26T05:44:28.936Z,84.16
2023-02-26T05:46:58.444Z,84.56
2023-02-26T05:49:26.632Z,84.64
2023-02-26T05:51:55.992Z,84.42
2023-02-26T05:54:24.516Z,83.40
2023-02-26T05:56:52.986Z,83.97
2023-02-26T05:59:21.382Z,83.06
2023-02-26T06:01:49.729Z,83.91
2023-02-26T06:04:19.253Z,82.55
2023-02-26T06:06:47.696Z,82.72
2023-02-26T06:09:16.136Z,82.94
2023-02-26T06:11:44.365Z,82.84
2023-02-26T06:14:12.730Z,82.33
2023-02-26T06:16:40.920Z,82.55
2023-02-26T06:19:09.114Z,82.54
2023-02-26T06:21:38.632Z,82.57
2023-02-26T06:24:07.527Z,82.17
2023-02-26T06:26:36.169Z,78.63
2023-02-26T06:29:04.456Z,79.42
2023-02-26T06:31:32.774Z,79.69
2023-02-26T06:34:01.039Z,80.05
2023-02-26T06:36:29.682Z,80.36
2023-02-26T06:38:59.333Z,79.55
2023-02-26T06:41:27.919Z,79.47
2023-02-26T06:43:56.200Z,78.60
2023-02-26T06:46:25.397Z,78.87
2023-02-26T06:48:53.767Z,79.47
2023-02-26T06:51:21.961Z,79.14
2023-02-26T06:53:50.415Z,79.01
2023-02-26T06:56:20.038Z,78.85
2023-02-26T06:58:48.230Z,78.41
2023-02-26T07:01:16.493Z,77.28
2023-02-26T07:03:44.938Z,67.75
2023-02-26T07:06:26.985Z,60.97
2023-02-26T07:08:57.014Z,60.70
2023-02-26T07:11:26.599Z,62.18
2023-02-26T07:13:55.280Z,62.17
2023-02-26T07:16:23.680Z,62.63
2023-02-26T07:18:52.364Z,62.52
2023-02-26T07:21:20.575Z,61.08
2023-02-26T07:23:48.823Z,58.53
2023-02-26T07:26:17.618Z,58.28
2023-02-26T07:28:47.335Z,58.53
2023-02-26T07:31:16.817Z,56.33
2023-02-26T07:33:45.101Z,56.03
2023-02-26T07:36:15.116Z,54.54
2023-02-26T07:38:43.574Z,53.97
2023-02-26T07:41:11.944Z,53.55
2023-02-26T07:43:40.565Z,51.51
2023-02-26T07:46:10.802Z,50.29
2023-02-26T07:48:39.414Z,50.53
2023-02-26T07:51:08.651Z,49.28
2023-02-26T07:53:37.035Z,46.82
2023-02-26T07:56:05.991Z,47.12
2023-02-26T07:58:34.996Z,47.10
2023-02-26T08:01:03.340Z,47.40
2023-02-26T08:03:33.612Z,47.38
2023-02-26T08:06:01.845Z,46.86
2023-02-26T08:08:30.349Z,46.23
2023-02-26T08:11:01.256Z,45.93
2023-02-26T08:13:30.004Z,46.09
2023-02-26T08:15:58.469Z,45.89
2023-02-26T08:18:26.820Z,45.04
2023-02-26T08:20:56.877Z,45.72
2023-02-26T08:23:28.184Z,46.34
2023-02-26T08:26:02.558Z,44.75
2023-02-26T08:28:31.376Z,44.11
2023-02-26T08:30:59.736Z,44.04
2023-02-26T08:33:28.806Z,43.48
2023-02-26T08:35:59.260Z,42.45
2023-02-26T08:38:27.874Z,42.96
2023-02-26T08:40:57.439Z,42.62
2023-02-26T08:43:26.713Z,43.37
2023-02-26T08:45:55.398Z,42.31
2023-02-26T08:48:24.641Z,41.57
2023-02-26T08:50:52.795Z,43.03
2023-02-26T08:53:22.384Z,41.54
2023-02-26T08:55:50.859Z,41.71
2023-02-26T08:58:20.120Z,41.40
2023-02-26T09:00:48.870Z,40.81
2023-02-26T09:03:17.150Z,41.46
2023-02-26T09:05:45.349Z,40.60
2023-02-26T09:08:15.582Z,40.31
2023-02-26T09:10:45.817Z,39.11
2023-02-26T09:13:14.449Z,39.07
2023-02-26T09:15:42.985Z,38.31
2023-02-26T09:18:15.830Z,38.99
2023-02-26T09:20:44.941Z,37.62
2023-02-26T09:23:13.763Z,38.57
2023-02-26T09:25:42.040Z,36.77
2023-02-26T09:28:11.818Z,36.57
2023-02-26T09:30:39.989Z,36.80
2023-02-26T09:33:09.628Z,36.44
2023-02-26T09:35:38.064Z,36.36
2023-02-26T09:38:06.560Z,36.27
2023-02-26T09:40:43.949Z,36.71
2023-02-26T09:43:31.811Z,35.55
2023-02-26T09:46:08.188Z,34.76
2023-02-26T09:48:39.462Z,35.03
2023-02-26T09:51:12.587Z,35.25
2023-02-26T09:53:42.552Z,32.88
2023-02-26T09:56:17.943Z,31.82
2023-02-26T09:58:48.001Z,32.40
2023-02-26T10:01:24.724Z,31.55
2023-02-26T10:04:04.640Z,32.22
2023-02-26T10:06:35.141Z,31.78
2023-02-26T10:09:26.155Z,31.71
2023-02-26T10:12:01.924Z,32.30
2023-02-26T10:14:36.940Z,31.92
2023-02-26T10:17:09.883Z,32.54
2023-02-26T10:19:44.307Z,31.67
2023-02-26T10:22:23.182Z,31.05
2023-02-26T10:24:55.479Z,30.35
2023-02-26T10:27:38.592Z,30.94
2023-02-26T10:30:17.525Z,30.78
2023-02-26T10:32:56.930Z,30.65
2023-02-26T10:35:30.509Z,31.19
2023-02-26T10:38:01.275Z,30.98
2023-02-26T10:40:36.168Z,30.82
2023-02-26T10:43:13.434Z,30.21
2023-02-26T10:45:53.636Z,30.06
2023-02-26T10:48:39.448Z,29.99
2023-02-26T10:51:14.415Z,30.28
2023-02-26T10:53:47.494Z,29.99
2023-02-26T10:56:20.659Z,30.48
2023-02-26T10:58:48.893Z,30.54
2023-02-26T11:01:21.854Z,30.13
2023-02-26T11:03:52.953Z,30.41
2023-02-26T11:06:25.474Z,30.34
2023-02-26T11:08:56.476Z,30.39
2023-02-26T11:11:42.926Z,30.20
2023-02-26T11:14:12.047Z,30.23
2023-02-26T11:16:49.271Z,30.68
2023-02-26T11:19:20.177Z,30.17
2023-02-26T11:21:49.299Z,29.84
2023-02-26T11:24:21.924Z,29.44
2023-02-26T11:26:51.941Z,29.14
2023-02-26T11:29:23.146Z,29.81
2023-02-26T11:31:55.714Z,29.42
2023-02-26T11:34:25.359Z,29.28
2023-02-26T11:36:57.738Z,28.78
2023-02-26T11:39:28.543Z,28.21
2023-02-26T11:41:59.713Z,28.47
2023-02-26T11:44:38.905Z,29.07
2023-02-26T11:47:18.905Z,29.55
2023-02-26T11:49:52.160Z,30.93
2023-02-26T11:52:24.286Z,31.79
2023-02-26T11:54:58.715Z,33.28
2023-02-26T11:57:29.283Z,34.18
2023-02-26T12:00:02.369Z,34.96
2023-02-26T12:02:36.254Z,34.77
2023-02-26T12:05:08.241Z,34.59
2023-02-26T12:07:37.994Z,34.46
2023-02-26T12:10:15.160Z,34.57
2023-02-26T12:12:56.352Z,34.74
2023-02-26T12:15:33.686Z,34.83
2023-02-26T12:18:27.067Z,34.81
2023-02-26T12:21:08.134Z,35.02
2023-02-26T12:23:58.278Z,35.15
2023-02-26T12:26:30.901Z,34.58
2023-02-26T12:29:24.082Z,34.64
2023-02-26T12:32:21.546Z,34.50
2023-02-26T12:35:14.463Z,33.81
2023-02-26T12:37:53.537Z,33.15
2023-02-26T12:40:43.635Z,33.44
2023-02-26T12:43:18.301Z,32.82
2023-02-26T12:45:56.477Z,32.73
2023-02-26T12:49:04.391Z,32.86
2023-02-26T12:52:00.787Z,33.03
2023-02-26T12:54:43.820Z,31.97
2023-02-26T12:57:44.381Z,31.68
2023-02-26T13:00:25.466Z,31.47
2023-02-26T13:03:09.198Z,31.40
2023-02-26T13:05:54.009Z,30.85
2023-02-26T13:08:33.841Z,31.26
2023-02-26T13:11:16.023Z,31.32
2023-02-26T13:14:05.684Z,31.31
2023-02-26T13:16:46.343Z,31.87
2023-02-26T13:19:26.417Z,32.00
2023-02-26T13:21:58.461Z,31.61
2023-02-26T13:24:35.003Z,31.65
2023-02-26T13:27:06.170Z,32.07
2023-02-26T13:29:40.416Z,32.33
2023-02-26T13:32:14.217Z,32.50
2023-02-26T13:34:48.072Z,33.15
2023-02-26T13:37:25.385Z,33.97
2023-02-26T13:40:06.904Z,34.30
2023-02-26T13:42:43.419Z,34.44
2023-02-26T13:45:29.639Z,34.12
2023-02-26T13:48:09.277Z,34.29
2023-02-26T13:50:51.699Z,34.72
2023-02-26T13:53:52.672Z,34.23
2023-02-26T13:56:39.591Z,34.74
2023-02-26T13:59:31.106Z,34.70
2023-02-26T14:02:03.444Z,34.93
2023-02-26T14:04:33.424Z,35.28
2023-02-26T14:07:08.419Z,34.92
2023-02-26T14:09:56.286Z,35.46
2023-02-26T14:12:37.077Z,35.60
2023-02-26T14:15:32.971Z,35.06
2023-02-26T14:18:03.424Z,33.71
2023-02-26T14:20:33.585Z,34.71
2023-02-26T14:23:21.573Z,34.82
2023-02-26T14:25:53.427Z,34.89
2023-02-26T14:28:55.975Z,33.39
2023-02-26T14:31:27.774Z,34.03
2023-02-26T14:34:10.763Z,33.79
2023-02-26T14:36:46.785Z,34.23
2023-02-26T14:39:30.583Z,34.49
2023-02-26T14:42:03.323Z,35.33
2023-02-26T14:44:38.771Z,36.05
2023-02-26T14:47:08.058Z,35.92
2023-02-26T14:49:39.000Z,36.36
2023-02-26T14:52:29.859Z,37.37
2023-02-26T14:55:12.712Z,37.04
2023-02-26T14:57:50.975Z,37.07
2023-02-26T15:00:31.849Z,37.40
2023-02-26T15:03:39.342Z,37.37
2023-02-26T15:06:22.061Z,37.26
2023-02-26T15:09:04.635Z,37.69
2023-02-26T15:12:05.661Z,38.08
2023-02-26T15:14:57.188Z,38.29
2023-02-26T15:17:40.632Z,38.18
2023-02-26T15:20:19.361Z,38.09
2023-02-26T15:23:04.488Z,38.62
2023-02-26T15:25:36.083Z,38.70
2023-02-26T15:28:07.417Z,38.72
2023-02-26T15:30:36.396Z,39.04
2023-02-26T15:33:13.438Z,39.36
2023-02-26T15:35:44.428Z,39.10
2023-02-26T15:38:12.930Z,39.52
2023-02-26T15:40:41.493Z,39.23
2023-02-26T15:43:11.242Z,39.79
2023-02-26T15:45:42.107Z,40.17
2023-02-26T15:48:16.563Z,40.35
2023-02-26T15:50:50.265Z,40.14
2023-02-26T15:53:25.312Z,40.63
2023-02-26T15:55:56.309Z,40.78
2023-02-26T15:58:34.610Z,40.64
2023-02-26T16:01:06.143Z,40.83
2023-02-26T16:03:43.927Z,40.79
2023-02-26T16:06:15.680Z,40.72
2023-02-26T16:08:44.213Z,40.97
2023-02-26T16:11:15.568Z,40.88
2023-02-26T16:13:45.650Z,40.93
2023-02-26T16:16:19.084Z,41.73
2023-02-26T16:18:49.438Z,42.04
2023-02-26T16:21:28.630Z,42.32
2023-02-26T16:24:04.972Z,42.18
2023-02-26T16:26:36.539Z,42.64
2023-02-26T16:29:12.729Z,42.54
2023-02-26T16:31:44.136Z,42.37
2023-02-26T16:34:31.548Z,42.36
2023-02-26T16:37:00.266Z,42.84
2023-02-26T16:39:33.153Z,42.72
2023-02-26T16:42:10.865Z,43.11
2023-02-26T16:44:49.886Z,43.47
2023-02-26T16:47:20.602Z,43.74
2023-02-26T16:49:50.606Z,44.19
2023-02-26T16:52:22.147Z,44.60
2023-02-26T16:54:56.711Z,44.95
2023-02-26T16:57:32.020Z,45.06
2023-02-26T17:00:04.807Z,44.88
2023-02-26T17:02:36.487Z,44.75
2023-02-26T17:05:17.976Z,45.03
2023-02-26T17:07:56.811Z,45.12
2023-02-26T17:10:33.306Z,45.25
2023-02-26T17:13:14.183Z,45.53
2023-02-26T17:15:45.175Z,45.45
2023-02-26T17:18:16.491Z,45.52
2023-02-26T17:20:46.492Z,45.79
2023-02-26T17:23:17.746Z,45.70
2023-02-26T17:25:51.056Z,46.04
2023-02-26T17:28:24.961Z,46.14
2023-02-26T17:30:53.771Z,46.55
2023-02-26T17:33:22.535Z,46.75
2023-02-26T17:35:53.867Z,46.37
2023-02-26T17:38:22.995Z,46.34
2023-02-26T17:40:54.562Z,46.63
2023-02-26T17:43:24.173Z,46.98
2023-02-26T17:45:53.478Z,46.86
2023-02-26T17:48:24.763Z,46.88
2023-02-26T17:50:59.446Z,46.93
2023-02-26T17:53:33.655Z,46.83
2023-02-26T17:56:02.172Z,47.13
2023-02-26T17:58:37.643Z,47.13
2023-02-26T18:01:06.632Z,47.27
2023-02-26T18:03:35.273Z,47.18
2023-02-26T18:06:07.983Z,47.19
2023-02-26T18:08:36.864Z,47.51
2023-02-26T18:11:06.605Z,47.72
2023-02-26T18:13:39.324Z,47.85
2023-02-26T18:16:20.278Z,48.02
2023-02-26T18:18:49.698Z,47.85
2023-02-26T18:21:21.748Z,48.16
2023-02-26T18:23:58.298Z,48.04
2023-02-26T18:26:30.800Z,47.96
2023-02-26T18:29:04.360Z,48.46
2023-02-26T18:31:35.840Z,48.36
2023-02-26T18:34:12.480Z,48.28
2023-02-26T18:36:51.326Z,48.78
2023-02-26T18:39:27.383Z,49.14
2023-02-26T18:41:55.897Z,49.06
2023-02-26T18:44:31.807Z,48.98
2023-02-26T18:47:02.250Z,49.23
2023-02-26T18:49:38.729Z,49.47
2023-02-26T18:52:10.429Z,49.71
2023-02-26T18:54:41.707Z,49.76
2023-02-26T18:57:17.405Z,51.02
2023-02-26T19:02:31.012Z,51.37
2023-02-26T19:05:00.859Z,51.83
2023-02-26T19:07:36.218Z,52.11
2023-02-26T19:10:09.151Z,52.29
2023-02-26T19:12:39.728Z,52.76
2023-02-26T19:15:13.451Z,53.20
2023-02-26T19:17:47.661Z,53.87
2023-02-26T19:20:19.182Z,53.96
2023-02-26T19:22:50.237Z,54.99
2023-02-26T19:25:24.565Z,55.17
2023-02-26T19:27:54.539Z,55.82
2023-02-26T19:33:10.053Z,55.99
2023-02-26T19:35:38.760Z,56.37
2023-02-26T19:38:11.120Z,57.61
2023-02-26T19:40:39.727Z,57.82
2023-02-26T19:43:10.748Z,58.67
2023-02-26T19:45:39.827Z,58.02
2023-02-26T19:48:09.288Z,57.98
2023-02-26T19:50:40.142Z,58.33
2023-02-26T19:53:10.646Z,58.67
2023-02-26T19:55:42.601Z,58.75
2023-02-26T19:58:13.572Z,59.55
2023-02-26T20:00:42.960Z,60.24
2023-02-26T20:03:11.407Z,60.61
2023-02-26T20:05:48.010Z,60.74
2023-02-26T20:08:26.610Z,61.09
2023-02-26T20:10:57.009Z,61.59
2023-02-26T20:13:35.788Z,61.86
2023-02-26T20:16:08.925Z,62.18
2023-02-26T20:18:38.860Z,62.40
2023-02-26T20:21:18.615Z,63.71
2023-02-26T20:23:50.336Z,63.82
2023-02-26T20:26:20.377Z,63.77
2023-02-26T20:28:53.364Z,64.24
2023-02-26T20:31:25.887Z,64.62
2023-02-26T20:33:55.919Z,65.08
2023-02-26T20:36:24.144Z,65.52
2023-02-26T20:38:54.776Z,65.81
2023-02-26T20:41:27.964Z,64.14
2023-02-26T20:43:58.611Z,64.32
2023-02-26T20:46:27.459Z,64.64
2023-02-26T20:48:56.264Z,64.88
2023-02-26T20:51:25.052Z,64.48
2023-02-26T20:53:58.833Z,64.63
2023-02-26T20:56:27.448Z,64.98
2023-02-26T20:58:56.540Z,64.95
2023-02-26T21:01:25.108Z,64.87
2023-02-26T21:03:54.504Z,65.08
2023-02-26T21:06:24.237Z,65.27
2023-02-26T21:08:52.479Z,65.53
2023-02-26T21:11:22.128Z,65.35
2023-02-26T21:13:50.633Z,64.85
2023-02-26T21:16:19.646Z,65.02
2023-02-26T21:18:49.510Z,64.74
2023-02-26T21:21:21.142Z,64.09
2023-02-26T21:23:50.344Z,64.81
2023-02-26T21:26:18.673Z,65.13
2023-02-26T21:28:48.696Z,66.25
2023-02-26T21:31:17.475Z,66.97
2023-02-26T21:33:46.730Z,67.14
2023-02-26T21:36:15.922Z,67.77
2023-02-26T21:38:44.763Z,68.15
2023-02-26T21:41:13.184Z,68.26
2023-02-26T21:43:41.464Z,68.23
2023-02-26T21:46:11.460Z,68.08
2023-02-26T21:48:39.855Z,68.27
2023-02-26T21:51:08.406Z,68.35
2023-02-26T21:53:36.647Z,69.08
2023-02-26T21:56:04.913Z,69.05
2023-02-26T21:58:33.141Z,70.05
2023-02-26T22:01:01.426Z,70.32
2023-02-26T22:03:32.035Z,70.03
2023-02-26T22:06:00.533Z,69.76
2023-02-26T22:08:28.697Z,69.52
2023-02-26T22:10:56.907Z,70.30
2023-02-26T22:13:25.103Z,71.99
2023-02-26T22:15:53.502Z,71.82
2023-02-26T22:18:21.865Z,72.73
2023-02-26T22:20:51.792Z,72.74
2023-02-26T22:23:20.628Z,73.74
2023-02-26T22:26:07.552Z,74.87
2023-02-26T22:28:35.802Z,75.67
2023-02-26T22:31:06.519Z,76.04
2023-02-26T22:33:34.792Z,77.12
2023-02-26T22:36:04.614Z,77.51
2023-02-26T22:38:32.687Z,77.70
2023-02-26T22:41:00.693Z,77.71
2023-02-26T22:43:28.880Z,77.81
2023-02-26T22:45:57.156Z,78.15
2023-02-26T22:48:25.317Z,78.43
2023-02-26T22:50:54.055Z,78.91
2023-02-26T22:53:23.743Z,79.44
2023-02-26T22:55:54.733Z,79.67
2023-02-26T22:58:23.078Z,80.32
2023-02-26T23:00:52.847Z,80.62
2023-02-26T23:03:22.936Z,80.80
2023-02-26T23:05:51.032Z,81.11
2023-02-26T23:08:19.172Z,81.40
2023-02-26T23:10:48.850Z,81.04
2023-02-26T23:13:16.997Z,81.12
2023-02-26T23:15:46.644Z,81.28
2023-02-26T23:18:14.831Z,81.95
2023-02-26T23:20:43.015Z,81.20
2023-02-26T23:23:11.214Z,81.88
2023-02-26T23:25:39.325Z,82.33
2023-02-26T23:28:09.619Z,82.97
2023-02-26T23:30:38.069Z,83.22
2023-02-26T23:33:07.851Z,83.14
2023-02-26T23:35:36.795Z,83.63
2023-02-26T23:38:06.170Z,83.85
2023-02-26T23:40:34.926Z,85.04
2023-02-26T23:43:03.109Z,85.43
2023-02-26T23:45:32.690Z,86.18
2023-02-26T23:48:00.923Z,86.13
2023-02-26T23:50:29.176Z,86.47
2023-02-26T23:52:57.304Z,87.68
2023-02-26T23:55:26.344Z,88.18
2023-02-26T23:57:54.620Z,88.55
